Time;durP1;ratioP1;P1;durP2;ratioP2;P2;SDS_P1;SDS_P2;PMS_P1;PMS_P2;Temp;Humidity;BMP_temperature;BMP_pressure;BME280_temperature;BME280_humidity;BME280_pressure;Samples;Min_cycle;Max_cycle;Signal;HPM_P1;HPM_P2
2022/12/15 00:39:39;;;;;;;42.00;30.07;;;;;;;;;;5095498;28;20431;-76
2022/12/15 00:42:07;;;;;;;46.87;32.27;;;;;;;;;;5095922;28;20439;-76
2022/12/15 00:44:34;;;;;;;41.80;31.93;;;;;;;;;;5092680;28;20436;-77
2022/12/15 00:47:00;;;;;;;44.20;31.30;;;;;;;;;;5080848;28;20472;-75
2022/12/15 01:22:28;;;;;;;45.57;32.27;;;;;;;;;;5092707;28;20404;-77
2022/12/15 01:24:57;;;;;;;45.17;31.67;;;;;;;;;;5092634;28;20435;-74
2022/12/15 01:27:24;;;;;;;43.47;31.13;;;;;;;;;;5093522;28;20471;-76
2022/12/15 01:29:51;;;;;;;46.47;32.17;;;;;;;;;;5093310;28;20971;-76
2022/12/15 01:32:18;;;;;;;47.87;32.60;;;;;;;;;;5092898;28;20801;-75
2022/12/15 01:34:45;;;;;;;46.80;31.73;;;;;;;;;;5092179;28;20483;-75
2022/12/15 01:37:12;;;;;;;43.80;31.63;;;;;;;;;;5092611;28;20463;-75
2022/12/15 01:42:25;;;;;;;42.70;31.20;;;;;;;;;;5092472;28;20918;-76
2022/12/15 01:44:53;;;;;;;43.17;31.00;;;;;;;;;;5092132;28;20767;-75
2022/12/15 01:47:23;;;;;;;45.53;31.60;;;;;;;;;;5092194;28;20467;-75
2022/12/15 01:49:50;;;;;;;47.17;32.17;;;;;;;;;;5092007;28;20888;-76
2022/12/15 01:52:17;;;;;;;43.73;30.67;;;;;;;;;;5092565;28;20512;-76
2022/12/15 01:54:48;;;;;;;45.70;32.27;;;;;;;;;;5091631;28;20491;-75
2022/12/15 01:57:18;;;;;;;42.00;29.73;;;;;;;;;;5091893;28;20979;-76
2022/12/15 01:59:49;;;;;;;47.40;31.60;;;;;;;;;;5092205;28;20452;-75
2022/12/15 02:02:17;;;;;;;45.03;30.00;;;;;;;;;;5091891;28;20448;-76
2022/12/15 02:04:45;;;;;;;42.33;30.20;;;;;;;;;;5091053;28;21245;-75
2022/12/15 02:07:13;;;;;;;44.27;31.43;;;;;;;;;;5092180;28;20864;-76
2022/12/15 02:09:40;;;;;;;47.80;31.23;;;;;;;;;;5092147;28;20462;-75
2022/12/15 02:12:13;;;;;;;41.00;29.43;;;;;;;;;;5091616;28;20817;-76
2022/12/15 02:14:46;;;;;;;45.90;31.37;;;;;;;;;;5091232;28;20460;-75
2022/12/15 02:17:19;;;;;;;39.50;30.20;;;;;;;;;;5091282;28;20987;-76
2022/12/15 02:20:04;;;;;;;38.90;29.50;;;;;;;;;;5091751;28;20802;-75
2022/12/15 02:22:37;;;;;;;43.17;29.27;;;;;;;;;;5040854;28;21105;-74
2022/12/15 02:25:18;;;;;;;45.73;31.63;;;;;;;;;;5091954;28;20424;-76
2022/12/15 02:27:52;;;;;;;46.60;32.17;;;;;;;;;;5091549;28;20455;-75
2022/12/15 02:30:32;;;;;;;45.17;30.63;;;;;;;;;;5091805;28;20428;-74
2022/12/15 02:33:03;;;;;;;45.97;32.50;;;;;;;;;;5090872;28;20458;-76
2022/12/15 02:35:33;;;;;;;44.97;30.87;;;;;;;;;;5091733;28;20479;-75
2022/12/15 02:38:01;;;;;;;42.50;30.80;;;;;;;;;;5091571;28;20451;-75
2022/12/15 02:40:28;;;;;;;41.87;29.73;;;;;;;;;;5091900;28;20436;-76
2022/12/15 02:42:57;;;;;;;46.50;31.40;;;;;;;;;;5090893;28;20451;-76
2022/12/15 02:45:30;;;;;;;43.67;30.20;;;;;;;;;;5091468;28;20546;-76
2022/12/15 02:48:05;;;;;;;50.23;31.23;;;;;;;;;;5091516;28;20431;-75
2022/12/15 02:50:40;;;;;;;46.20;31.07;;;;;;;;;;5091187;28;20470;-74
2022/12/15 02:53:13;;;;;;;41.73;31.40;;;;;;;;;;5089764;28;20497;-75
2022/12/15 02:55:45;;;;;;;46.70;31.60;;;;;;;;;;5091259;28;21100;-74
2022/12/15 02:58:15;;;;;;;45.10;30.90;;;;;;;;;;5091460;28;20436;-76
2022/12/15 03:00:45;;;;;;;45.30;32.37;;;;;;;;;;5090658;28;20933;-75
2022/12/15 03:03:18;;;;;;;51.10;33.93;;;;;;;;;;5090546;28;20432;-75
2022/12/15 03:05:47;;;;;;;49.00;31.17;;;;;;;;;;5091123;28;20535;-75
2022/12/15 03:08:14;;;;;;;46.13;32.07;;;;;;;;;;5090740;28;20458;-75
2022/12/15 03:10:41;;;;;;;47.83;31.30;;;;;;;;;;5091015;28;20443;-76
2022/12/15 03:13:08;;;;;;;48.77;30.47;;;;;;;;;;5090221;28;20451;-75
2022/12/15 03:15:35;;;;;;;44.57;31.43;;;;;;;;;;5090363;28;20470;-76
2022/12/15 03:18:02;;;;;;;44.27;32.90;;;;;;;;;;5090928;28;20458;-75
2022/12/15 03:20:30;;;;;;;44.30;30.73;;;;;;;;;;5090795;28;20444;-75
2022/12/15 03:22:58;;;;;;;44.50;31.33;;;;;;;;;;5090984;28;20467;-75
2022/12/15 03:25:25;;;;;;;49.90;31.23;;;;;;;;;;5092651;28;20450;-74
2022/12/15 03:27:52;;;;;;;46.97;32.30;;;;;;;;;;5091403;28;20446;-75
2022/12/15 03:30:19;;;;;;;44.93;30.77;;;;;;;;;;5090714;28;20447;-75
2022/12/15 03:32:47;;;;;;;41.80;29.67;;;;;;;;;;5089941;28;20440;-75
2022/12/15 03:35:14;;;;;;;51.83;32.47;;;;;;;;;;5090482;28;20475;-75
2022/12/15 03:37:42;;;;;;;48.67;32.17;;;;;;;;;;5091020;28;20905;-75
2022/12/15 03:40:12;;;;;;;44.93;32.07;;;;;;;;;;5092793;28;20448;-74
2022/12/15 03:42:48;;;;;;;48.63;31.67;;;;;;;;;;5091202;28;20432;-75
2022/12/15 03:45:16;;;;;;;46.17;31.27;;;;;;;;;;5092187;28;20439;-75
2022/12/15 03:47:44;;;;;;;46.43;31.27;;;;;;;;;;5094255;28;20452;-75
2022/12/15 03:50:11;;;;;;;48.83;32.07;;;;;;;;;;5090645;28;20562;-75
2022/12/15 03:52:38;;;;;;;48.20;31.40;;;;;;;;;;5089483;28;20474;-75
2022/12/15 03:55:07;;;;;;;46.23;30.27;;;;;;;;;;5089651;28;20491;-76
2022/12/15 03:57:34;;;;;;;45.90;30.63;;;;;;;;;;5090019;28;20464;-75
2022/12/15 04:00:03;;;;;;;43.27;31.30;;;;;;;;;;5089923;28;20466;-75
2022/12/15 04:02:30;;;;;;;50.10;33.17;;;;;;;;;;5089649;28;20440;-75
2022/12/15 04:04:57;;;;;;;45.03;30.97;;;;;;;;;;5089994;28;20436;-75
2022/12/15 04:07:24;;;;;;;46.27;31.00;;;;;;;;;;5090586;28;20465;-75
2022/12/15 04:09:51;;;;;;;46.00;31.53;;;;;;;;;;5090818;28;20440;-75
2022/12/15 04:12:19;;;;;;;44.63;29.87;;;;;;;;;;5090092;28;20440;-74
2022/12/15 04:14:47;;;;;;;49.80;30.67;;;;;;;;;;5089039;28;20476;-74
2022/12/15 04:17:14;;;;;;;48.93;32.83;;;;;;;;;;5089849;28;20459;-76
2022/12/15 04:22:25;;;;;;;44.37;29.60;;;;;;;;;;5089879;28;20458;-75
2022/12/15 05:33:38;;;;;;;50.60;32.70;;;;;;;;;;5092094;28;21249;-75
2022/12/15 05:36:06;;;;;;;51.87;33.70;;;;;;;;;;5092213;28;20837;-76
2022/12/15 05:38:33;;;;;;;55.20;33.27;;;;;;;;;;5092375;28;20455;-75
2022/12/15 05:41:00;;;;;;;52.87;34.70;;;;;;;;;;5092222;28;20455;-76
2022/12/15 05:43:28;;;;;;;49.50;33.40;;;;;;;;;;5091678;28;20447;-75
2022/12/15 05:45:56;;;;;;;51.20;31.27;;;;;;;;;;5092599;28;20471;-75
2022/12/15 05:48:23;;;;;;;49.83;32.13;;;;;;;;;;5088127;28;20455;-76
2022/12/15 05:50:51;;;;;;;52.73;32.13;;;;;;;;;;5084142;28;20931;-75
2022/12/15 05:53:18;;;;;;;49.93;34.47;;;;;;;;;;5084726;28;20447;-74
2022/12/15 05:55:45;;;;;;;43.53;31.50;;;;;;;;;;5091773;28;20476;-75
2022/12/15 05:58:12;;;;;;;51.20;31.63;;;;;;;;;;5092028;28;20444;-75
2022/12/15 06:00:39;;;;;;;48.00;31.70;;;;;;;;;;5091878;28;20467;-75
2022/12/15 06:03:06;;;;;;;48.63;32.67;;;;;;;;;;5091417;28;20474;-75
2022/12/15 06:05:33;;;;;;;50.07;31.80;;;;;;;;;;5091730;28;20787;-76
2022/12/15 06:08:02;;;;;;;45.07;30.43;;;;;;;;;;5091770;28;20938;-75
2022/12/15 06:10:29;;;;;;;49.83;33.60;;;;;;;;;;5092113;28;20444;-76
2022/12/15 06:12:56;;;;;;;46.23;31.63;;;;;;;;;;5092683;28;20440;-76
2022/12/15 06:15:23;;;;;;;50.57;32.30;;;;;;;;;;5098042;28;20483;-75
2022/12/15 06:17:52;;;;;;;54.43;32.17;;;;;;;;;;5106439;28;20436;-75
2022/12/15 06:20:19;;;;;;;55.17;32.73;;;;;;;;;;5109985;28;20435;-75
2022/12/15 06:22:46;;;;;;;48.77;32.10;;;;;;;;;;5097692;28;20447;-76
2022/12/15 06:25:14;;;;;;;50.60;31.03;;;;;;;;;;5094684;28;20443;-76
2022/12/15 06:27:41;;;;;;;51.20;31.73;;;;;;;;;;5093530;28;20467;-75
2022/12/15 06:30:09;;;;;;;51.37;32.27;;;;;;;;;;5093324;28;20811;-75
2022/12/15 06:32:36;;;;;;;49.20;31.47;;;;;;;;;;5093857;28;20444;-76
2022/12/15 06:35:03;;;;;;;52.23;32.37;;;;;;;;;;5095538;28;20479;-75
2022/12/15 06:37:30;;;;;;;51.00;31.67;;;;;;;;;;5095489;28;20475;-75
2022/12/15 06:39:57;;;;;;;46.77;30.77;;;;;;;;;;5100888;28;20450;-75
2022/12/15 06:42:26;;;;;;;47.30;30.93;;;;;;;;;;5095798;28;21008;-76
2022/12/15 06:44:53;;;;;;;44.87;31.20;;;;;;;;;;5097125;28;20440;-75
2022/12/15 06:47:20;;;;;;;49.93;30.63;;;;;;;;;;5091187;28;20467;-75
2022/12/15 06:49:47;;;;;;;54.90;33.03;;;;;;;;;;5091516;28;20450;-76
2022/12/15 06:52:14;;;;;;;52.73;33.30;;;;;;;;;;5091079;28;20460;-76
2022/12/15 06:54:41;;;;;;;47.87;31.20;;;;;;;;;;5090870;28;20821;-76
2022/12/15 06:57:08;;;;;;;44.23;31.33;;;;;;;;;;5091072;28;20460;-75
2022/12/15 06:59:36;;;;;;;47.50;30.30;;;;;;;;;;5091011;28;20464;-74
2022/12/15 07:02:04;;;;;;;52.23;33.97;;;;;;;;;;5091318;28;20439;-76
2022/12/15 07:04:32;;;;;;;50.23;33.17;;;;;;;;;;5092340;28;20958;-75
2022/12/15 07:06:59;;;;;;;50.23;30.87;;;;;;;;;;5091751;28;20808;-75
2022/12/15 07:09:27;;;;;;;57.20;30.70;;;;;;;;;;5092369;28;20884;-75
2022/12/15 07:11:54;;;;;;;49.10;32.17;;;;;;;;;;5091636;28;20452;-75
2022/12/15 07:14:21;;;;;;;40.90;29.53;;;;;;;;;;5090303;28;20486;-75
2022/12/15 07:16:50;;;;;;;46.90;30.90;;;;;;;;;;5090757;28;20908;-76
2022/12/15 07:19:17;;;;;;;53.73;33.60;;;;;;;;;;5090823;28;20853;-76
2022/12/15 07:21:44;;;;;;;42.90;30.97;;;;;;;;;;5090950;28;20852;-75
2022/12/15 07:24:12;;;;;;;51.40;32.17;;;;;;;;;;5094073;28;20462;-75
2022/12/15 07:26:39;;;;;;;47.87;32.33;;;;;;;;;;5095334;28;20467;-76
2022/12/15 07:29:06;;;;;;;49.10;30.07;;;;;;;;;;5096558;28;20436;-75
2022/12/15 07:31:33;;;;;;;49.57;30.53;;;;;;;;;;5096370;28;20448;-75
2022/12/15 07:34:02;;;;;;;47.70;30.97;;;;;;;;;;5093325;28;20447;-75
2022/12/15 07:36:29;;;;;;;45.87;30.90;;;;;;;;;;5091546;28;20472;-75
2022/12/15 07:39:00;;;;;;;49.47;30.83;;;;;;;;;;5090448;28;20438;-75
2022/12/15 07:41:28;;;;;;;48.27;31.13;;;;;;;;;;5090941;28;20451;-75
2022/12/15 07:43:56;;;;;;;50.27;31.03;;;;;;;;;;5089741;28;20849;-76
2022/12/15 07:46:24;;;;;;;44.33;29.33;;;;;;;;;;5090727;28;20468;-75
2022/12/15 07:48:52;;;;;;;42.23;30.00;;;;;;;;;;5090362;28;21025;-75
2022/12/15 07:51:22;;;;;;;46.80;28.97;;;;;;;;;;5089317;28;20901;-75
2022/12/15 07:53:50;;;;;;;48.37;31.47;;;;;;;;;;5085702;28;20446;-75
2022/12/15 07:56:18;;;;;;;50.87;32.37;;;;;;;;;;5106841;28;20982;-76
2022/12/15 07:58:45;;;;;;;42.77;30.20;;;;;;;;;;5090242;28;20444;-76
2022/12/15 08:01:13;;;;;;;51.53;30.80;;;;;;;;;;5090866;28;20446;-76
2022/12/15 08:03:41;;;;;;;48.37;31.57;;;;;;;;;;5090405;28;20939;-77
2022/12/15 08:06:10;;;;;;;46.63;31.90;;;;;;;;;;5091665;28;20455;-76
2022/12/15 08:08:38;;;;;;;49.23;31.23;;;;;;;;;;5091417;28;20463;-76
2022/12/15 08:11:06;;;;;;;46.53;31.77;;;;;;;;;;5092762;28;20451;-75
2022/12/15 08:13:34;;;;;;;50.50;32.10;;;;;;;;;;5090712;28;20443;-76
2022/12/15 08:16:01;;;;;;;46.90;29.60;;;;;;;;;;5090731;28;20483;-76
2022/12/15 08:18:28;;;;;;;45.20;29.97;;;;;;;;;;5090558;28;20446;-75
2022/12/15 08:20:55;;;;;;;45.90;30.43;;;;;;;;;;5092308;28;20448;-76
2022/12/15 08:23:22;;;;;;;49.43;30.67;;;;;;;;;;5092092;28;20505;-76
2022/12/15 08:25:51;;;;;;;43.70;30.73;;;;;;;;;;5089978;28;20538;-75
2022/12/15 08:28:18;;;;;;;48.43;31.53;;;;;;;;;;5090476;28;20443;-75
2022/12/15 08:30:45;;;;;;;54.40;30.80;;;;;;;;;;5090798;28;20440;-76
2022/12/15 08:33:13;;;;;;;47.30;30.10;;;;;;;;;;5091341;28;20440;-75
2022/12/15 08:35:40;;;;;;;46.87;30.43;;;;;;;;;;5094624;28;20486;-75
2022/12/15 08:38:08;;;;;;;49.40;32.70;;;;;;;;;;5095498;28;20440;-76
2022/12/15 08:40:35;;;;;;;46.37;29.23;;;;;;;;;;5097005;28;20462;-76
2022/12/15 08:43:03;;;;;;;45.50;30.90;;;;;;;;;;5089459;28;20448;-76
2022/12/15 08:45:30;;;;;;;49.30;31.40;;;;;;;;;;5091465;28;20766;-76
2022/12/15 08:47:57;;;;;;;47.03;31.20;;;;;;;;;;5108984;28;20438;-76
2022/12/15 08:50:24;;;;;;;50.87;32.70;;;;;;;;;;5113059;28;20460;-75
2022/12/15 08:52:51;;;;;;;52.73;32.50;;;;;;;;;;5113792;28;20442;-75
2022/12/15 08:55:19;;;;;;;49.33;31.87;;;;;;;;;;5118370;28;20531;-76
2022/12/15 08:57:46;;;;;;;49.97;31.10;;;;;;;;;;5118019;28;20521;-75
2022/12/15 09:00:16;;;;;;;43.93;31.33;;;;;;;;;;5116890;28;20450;-76
2022/12/15 09:02:44;;;;;;;54.63;32.63;;;;;;;;;;5116878;28;20445;-76
2022/12/15 09:05:11;;;;;;;50.13;32.40;;;;;;;;;;5116642;28;20435;-76
2022/12/15 09:07:38;;;;;;;50.27;32.97;;;;;;;;;;5117768;28;20466;-75
2022/12/15 09:10:05;;;;;;;48.53;31.73;;;;;;;;;;5118554;28;20534;-76
2022/12/15 09:12:32;;;;;;;46.90;31.33;;;;;;;;;;5121045;28;20437;-76
2022/12/15 09:14:59;;;;;;;50.70;32.97;;;;;;;;;;5099705;28;20491;-76
2022/12/15 09:17:28;;;;;;;47.47;31.40;;;;;;;;;;5097726;28;20466;-77
2022/12/15 09:19:55;;;;;;;48.70;30.73;;;;;;;;;;5095488;28;20439;-76
2022/12/15 09:22:22;;;;;;;46.70;32.27;;;;;;;;;;5095761;28;20443;-75
2022/12/15 09:24:50;;;;;;;49.97;33.63;;;;;;;;;;5095605;28;20439;-75
2022/12/15 09:27:17;;;;;;;46.47;31.73;;;;;;;;;;5096570;28;20468;-75
2022/12/15 09:29:44;;;;;;;47.33;30.50;;;;;;;;;;5097202;28;20447;-75
2022/12/15 09:32:12;;;;;;;51.03;32.50;;;;;;;;;;5098209;28;20443;-77
2022/12/15 09:34:41;;;;;;;47.73;30.80;;;;;;;;;;5095973;28;20945;-75
2022/12/15 09:37:08;;;;;;;49.83;31.13;;;;;;;;;;5091597;28;20463;-76
2022/12/15 09:39:36;;;;;;;44.23;28.80;;;;;;;;;;5077962;28;20448;-76
2022/12/15 09:42:03;;;;;;;49.07;31.60;;;;;;;;;;5094876;28;20779;-75
2022/12/15 09:44:32;;;;;;;43.50;31.33;;;;;;;;;;5093396;28;20448;-75
2022/12/15 09:47:05;;;;;;;44.37;28.87;;;;;;;;;;5081396;28;20472;-76
2022/12/15 09:49:39;;;;;;;45.57;29.57;;;;;;;;;;5096194;28;20480;-75
2022/12/15 09:52:11;;;;;;;47.00;29.47;;;;;;;;;;5096531;28;20430;-76
2022/12/15 09:54:40;;;;;;;52.33;30.50;;;;;;;;;;5094241;28;21148;-75
2022/12/15 09:57:12;;;;;;;46.40;29.37;;;;;;;;;;5096890;28;20456;-76
2022/12/15 09:59:42;;;;;;;51.40;30.13;;;;;;;;;;5094289;28;20447;-76
2022/12/15 10:02:18;;;;;;;46.10;30.70;;;;;;;;;;5096250;28;20432;-75
2022/12/15 10:04:49;;;;;;;46.70;29.60;;;;;;;;;;5094558;28;20439;-75
2022/12/15 10:07:21;;;;;;;46.20;28.93;;;;;;;;;;5092395;28;20460;-76
2022/12/15 10:09:48;;;;;;;47.53;28.80;;;;;;;;;;5093157;28;20454;-76
2022/12/15 10:12:18;;;;;;;48.20;30.10;;;;;;;;;;5093025;28;20436;-77
2022/12/15 10:14:50;;;;;;;45.03;30.37;;;;;;;;;;5092095;28;20451;-76
2022/12/15 10:17:21;;;;;;;50.43;30.30;;;;;;;;;;5093201;28;20825;-75
2022/12/15 10:19:52;;;;;;;53.00;31.23;;;;;;;;;;5093011;28;20439;-75
2022/12/15 10:22:23;;;;;;;46.67;29.03;;;;;;;;;;5092306;28;20443;-76
2022/12/15 10:24:50;;;;;;;44.37;29.43;;;;;;;;;;5092023;28;20447;-76
2022/12/15 10:27:23;;;;;;;51.10;32.27;;;;;;;;;;5093287;28;20471;-75
2022/12/15 10:29:54;;;;;;;43.10;29.87;;;;;;;;;;5098327;28;20459;-76
2022/12/15 10:32:26;;;;;;;43.40;28.77;;;;;;;;;;5095901;28;20454;-76
2022/12/15 10:34:53;;;;;;;41.10;28.17;;;;;;;;;;5094910;28;20432;-75
2022/12/15 10:37:23;;;;;;;48.37;31.63;;;;;;;;;;5096090;28;20531;-75
2022/12/15 10:39:51;;;;;;;40.37;29.10;;;;;;;;;;5096848;28;20479;-77
2022/12/15 10:42:20;;;;;;;47.67;30.37;;;;;;;;;;5097558;28;20576;-75
2022/12/15 10:44:48;;;;;;;47.60;29.87;;;;;;;;;;5095095;28;20439;-75
2022/12/15 10:47:20;;;;;;;42.37;28.97;;;;;;;;;;5093251;28;20495;-76
2022/12/15 10:49:47;;;;;;;42.57;29.03;;;;;;;;;;5092932;28;20443;-77
2022/12/15 10:52:27;;;;;;;43.00;28.63;;;;;;;;;;5093293;28;20448;-76
2022/12/15 10:54:55;;;;;;;45.10;29.63;;;;;;;;;;5092837;28;20443;-76
2022/12/15 10:57:26;;;;;;;43.60;28.83;;;;;;;;;;5093563;28;20488;-78
2022/12/15 10:59:53;;;;;;;43.67;28.33;;;;;;;;;;5093525;28;20485;-76
2022/12/15 11:02:27;;;;;;;46.30;29.90;;;;;;;;;;5093073;28;20450;-75
2022/12/15 11:04:57;;;;;;;43.63;30.10;;;;;;;;;;5092552;28;20424;-74
2022/12/15 11:07:26;;;;;;;48.80;28.13;;;;;;;;;;5092144;28;20467;-75
2022/12/15 11:09:59;;;;;;;46.30;28.87;;;;;;;;;;5091344;28;20440;-75
2022/12/15 11:15:33;;;;;;;39.37;27.83;;;;;;;;;;5091277;28;20463;-76
2022/12/15 11:18:02;;;;;;;42.03;28.73;;;;;;;;;;5091547;28;20455;-76
2022/12/15 11:20:33;;;;;;;42.20;28.80;;;;;;;;;;5091364;28;20463;-76
2022/12/15 11:23:03;;;;;;;47.53;30.43;;;;;;;;;;5090589;28;20444;-76
2022/12/15 11:25:33;;;;;;;42.90;27.60;;;;;;;;;;5091744;28;20423;-77
2022/12/15 11:28:03;;;;;;;42.97;27.97;;;;;;;;;;5091351;28;20451;-76
2022/12/15 11:30:31;;;;;;;49.13;29.73;;;;;;;;;;5090808;28;20447;-78
2022/12/15 11:32:59;;;;;;;44.53;30.23;;;;;;;;;;5090450;28;20455;-75
2022/12/15 11:35:29;;;;;;;44.00;30.67;;;;;;;;;;5090766;28;21146;-75
2022/12/15 11:37:57;;;;;;;48.27;31.30;;;;;;;;;;5090710;28;20455;-76
2022/12/15 11:40:30;;;;;;;47.23;31.10;;;;;;;;;;5085070;28;20455;-77
2022/12/15 11:43:04;;;;;;;41.90;29.47;;;;;;;;;;5087654;28;20474;-76
2022/12/15 11:45:36;;;;;;;43.60;29.83;;;;;;;;;;5088477;28;20436;-76
2022/12/15 11:48:06;;;;;;;40.60;26.90;;;;;;;;;;5072213;28;20463;-76
2022/12/15 11:50:36;;;;;;;47.27;30.27;;;;;;;;;;5075947;28;20480;-75
2022/12/15 11:53:14;;;;;;;47.73;30.73;;;;;;;;;;5087274;28;20455;-77
2022/12/15 11:55:46;;;;;;;44.83;29.93;;;;;;;;;;5087741;28;20486;-77
2022/12/15 11:58:25;;;;;;;42.63;28.80;;;;;;;;;;5088148;28;20920;-76
2022/12/15 12:00:55;;;;;;;44.10;30.40;;;;;;;;;;5076753;28;20947;-77
2022/12/15 12:03:28;;;;;;;44.97;30.97;;;;;;;;;;5090410;28;20428;-75
2022/12/15 12:06:00;;;;;;;39.97;28.20;;;;;;;;;;5091351;28;20467;-76
2022/12/15 12:08:36;;;;;;;44.03;29.50;;;;;;;;;;5093926;28;20463;-77
2022/12/15 12:11:09;;;;;;;42.83;29.43;;;;;;;;;;5092656;28;20446;-76
2022/12/15 12:13:40;;;;;;;43.27;29.20;;;;;;;;;;5088655;28;20949;-77
2022/12/15 12:16:11;;;;;;;45.50;29.17;;;;;;;;;;5070673;28;20508;-75
2022/12/15 12:18:40;;;;;;;42.60;28.67;;;;;;;;;;5070721;28;20447;-77
2022/12/15 12:21:09;;;;;;;45.50;29.37;;;;;;;;;;5072773;28;20483;-76
2022/12/15 12:23:39;;;;;;;46.10;29.50;;;;;;;;;;5071972;28;21245;-74
2022/12/15 12:26:11;;;;;;;43.77;29.87;;;;;;;;;;5077738;28;20482;-75
2022/12/15 12:28:43;;;;;;;43.53;29.40;;;;;;;;;;5076780;28;20428;-75
2022/12/15 12:31:16;;;;;;;39.93;28.20;;;;;;;;;;5076157;28;20456;-75
2022/12/15 12:33:47;;;;;;;38.27;27.33;;;;;;;;;;5075257;28;20437;-74
2022/12/15 12:36:15;;;;;;;42.43;28.70;;;;;;;;;;5074151;28;20480;-76
2022/12/15 12:38:45;;;;;;;44.57;30.83;;;;;;;;;;5073874;28;20467;-75
2022/12/15 12:41:18;;;;;;;42.67;28.53;;;;;;;;;;5074162;28;20437;-76
2022/12/15 12:43:48;;;;;;;42.33;28.33;;;;;;;;;;5073253;28;20457;-76
2022/12/15 12:46:17;;;;;;;41.73;27.80;;;;;;;;;;5073630;28;20559;-77
2022/12/15 12:48:46;;;;;;;48.10;28.67;;;;;;;;;;5084768;28;20443;-76
2022/12/15 12:51:19;;;;;;;41.60;28.10;;;;;;;;;;5094025;28;20427;-75
2022/12/15 12:53:46;;;;;;;42.83;29.80;;;;;;;;;;5093907;28;20467;-76
2022/12/15 12:56:28;;;;;;;40.70;27.97;;;;;;;;;;5094531;28;20478;-75
2022/12/15 12:58:57;;;;;;;38.67;27.17;;;;;;;;;;5094050;28;20458;-75
2022/12/15 13:01:26;;;;;;;38.90;27.93;;;;;;;;;;5094350;28;20436;-74
2022/12/15 13:04:06;;;;;;;40.90;27.27;;;;;;;;;;5092879;28;20439;-76
2022/12/15 13:06:51;;;;;;;41.43;27.27;;;;;;;;;;5093671;28;20495;-77
2022/12/15 13:09:22;;;;;;;42.43;27.03;;;;;;;;;;5093851;28;20450;-75
2022/12/15 13:11:57;;;;;;;37.70;26.30;;;;;;;;;;5093885;28;20439;-75
2022/12/15 13:14:46;;;;;;;36.03;25.90;;;;;;;;;;5093071;28;20449;-75
2022/12/15 13:17:16;;;;;;;43.30;28.80;;;;;;;;;;5073243;28;20495;-75
2022/12/15 13:20:02;;;;;;;41.90;26.20;;;;;;;;;;5073355;28;20522;-75
2022/12/15 13:22:31;;;;;;;43.53;26.87;;;;;;;;;;5072999;28;20444;-75
2022/12/15 13:24:58;;;;;;;41.40;27.73;;;;;;;;;;5090202;28;20451;-76
2022/12/15 13:27:35;;;;;;;38.77;27.97;;;;;;;;;;5093209;28;20470;-75
2022/12/15 13:30:14;;;;;;;38.33;27.50;;;;;;;;;;5093077;28;20783;-76
2022/12/15 13:32:42;;;;;;;36.80;26.57;;;;;;;;;;5099247;28;20435;-76
2022/12/15 13:35:23;;;;;;;40.43;26.23;;;;;;;;;;5109369;28;20557;-76
2022/12/15 13:37:51;;;;;;;43.90;28.73;;;;;;;;;;5108118;28;20488;-74
2022/12/15 13:40:32;;;;;;;42.63;27.10;;;;;;;;;;5107949;28;20435;-76
2022/12/15 13:42:59;;;;;;;40.40;26.30;;;;;;;;;;5093615;28;20852;-75
2022/12/15 13:45:35;;;;;;;38.40;27.03;;;;;;;;;;5092607;28;20444;-75
2022/12/15 13:48:05;;;;;;;46.53;29.73;;;;;;;;;;5093280;28;20432;-75
2022/12/15 13:50:36;;;;;;;39.10;25.80;;;;;;;;;;5092429;28;20446;-75
2022/12/15 13:53:03;;;;;;;36.80;26.57;;;;;;;;;;5092586;28;20447;-74
2022/12/15 13:55:35;;;;;;;40.20;26.90;;;;;;;;;;5092665;28;20470;-76
2022/12/15 13:58:07;;;;;;;38.03;26.83;;;;;;;;;;5093278;28;20477;-75
2022/12/15 14:00:36;;;;;;;37.50;25.70;;;;;;;;;;5093055;28;20448;-76
2022/12/15 14:03:06;;;;;;;38.83;27.10;;;;;;;;;;5091930;28;20442;-75
2022/12/15 14:05:33;;;;;;;44.30;27.67;;;;;;;;;;5092920;28;20444;-77
2022/12/15 14:08:02;;;;;;;41.03;27.40;;;;;;;;;;5101798;28;20440;-77
2022/12/15 14:10:34;;;;;;;40.47;26.90;;;;;;;;;;5101436;28;20446;-77
2022/12/15 14:13:03;;;;;;;40.13;26.47;;;;;;;;;;5101794;28;20445;-75
2022/12/15 14:15:31;;;;;;;40.10;26.37;;;;;;;;;;5097507;28;20449;-75
2022/12/15 14:18:01;;;;;;;36.27;26.70;;;;;;;;;;5093732;28;20543;-75
2022/12/15 14:20:30;;;;;;;50.30;27.90;;;;;;;;;;5092464;28;20437;-76
2022/12/15 14:22:57;;;;;;;33.63;26.00;;;;;;;;;;5091991;28;20890;-75
2022/12/15 14:25:27;;;;;;;41.20;24.70;;;;;;;;;;5092111;28;20467;-77
2022/12/15 14:27:55;;;;;;;37.77;26.20;;;;;;;;;;5092359;28;20468;-77
2022/12/15 14:30:23;;;;;;;38.43;26.47;;;;;;;;;;5092436;28;20445;-75
2022/12/15 14:32:52;;;;;;;40.13;28.97;;;;;;;;;;5091531;28;20892;-77
2022/12/15 14:35:23;;;;;;;36.93;25.20;;;;;;;;;;5092547;28;20432;-74
2022/12/15 14:37:50;;;;;;;43.40;26.30;;;;;;;;;;5092200;28;20495;-74
2022/12/15 14:40:18;;;;;;;37.67;24.83;;;;;;;;;;5092065;28;20447;-77
2022/12/15 14:42:45;;;;;;;37.13;25.80;;;;;;;;;;5091652;28;20828;-76
2022/12/15 14:45:19;;;;;;;38.80;26.73;;;;;;;;;;5091882;28;20460;-75
2022/12/15 14:47:51;;;;;;;37.13;25.17;;;;;;;;;;5091966;28;20445;-75
2022/12/15 14:50:19;;;;;;;41.67;26.10;;;;;;;;;;5092497;28;20799;-76
2022/12/15 14:52:48;;;;;;;36.50;24.10;;;;;;;;;;5091877;28;20818;-75
2022/12/15 14:55:28;;;;;;;32.87;24.50;;;;;;;;;;5117278;28;20492;-77
2022/12/15 14:57:55;;;;;;;39.53;24.90;;;;;;;;;;5117497;28;20478;-74
2022/12/15 15:00:25;;;;;;;39.70;25.37;;;;;;;;;;5113582;28;20453;-75
2022/12/15 15:03:07;;;;;;;37.93;24.43;;;;;;;;;;5112131;28;20444;-77
2022/12/15 15:05:34;;;;;;;39.80;26.20;;;;;;;;;;5106030;28;20457;-75
2022/12/15 15:08:03;;;;;;;38.83;25.67;;;;;;;;;;5099318;28;20432;-75
2022/12/15 15:10:31;;;;;;;36.60;24.63;;;;;;;;;;5091143;28;20525;-75
2022/12/15 15:12:58;;;;;;;35.13;23.80;;;;;;;;;;5090166;28;20435;-75
2022/12/15 15:15:31;;;;;;;40.67;26.50;;;;;;;;;;5092986;28;20442;-75
2022/12/15 15:18:19;;;;;;;36.20;24.37;;;;;;;;;;5094509;28;20480;-75
2022/12/15 15:20:51;;;;;;;41.03;25.60;;;;;;;;;;5100373;28;20470;-76
2022/12/15 15:23:19;;;;;;;37.37;24.80;;;;;;;;;;5092820;28;20821;-76
2022/12/15 15:25:50;;;;;;;35.67;24.63;;;;;;;;;;5094849;28;20472;-75
2022/12/15 15:28:21;;;;;;;38.43;24.87;;;;;;;;;;5094889;28;20440;-74
2022/12/15 15:30:49;;;;;;;34.27;23.93;;;;;;;;;;5090958;28;20447;-76
2022/12/15 15:33:16;;;;;;;34.40;22.87;;;;;;;;;;5090371;28;20935;-78
2022/12/15 15:35:45;;;;;;;36.63;23.60;;;;;;;;;;5090702;28;20469;-77
2022/12/15 15:38:15;;;;;;;34.30;22.30;;;;;;;;;;5094187;28;20992;-74
2022/12/15 15:40:43;;;;;;;37.93;23.83;;;;;;;;;;5095637;28;20448;-74
2022/12/15 15:43:12;;;;;;;34.73;22.43;;;;;;;;;;5093947;28;20440;-75
2022/12/15 15:45:40;;;;;;;31.50;21.77;;;;;;;;;;5090957;28;20549;-76
2022/12/15 15:48:07;;;;;;;34.07;23.60;;;;;;;;;;5090704;28;20964;-77
2022/12/15 15:50:34;;;;;;;32.57;22.40;;;;;;;;;;5091178;28;20444;-76
2022/12/15 15:53:02;;;;;;;31.90;21.10;;;;;;;;;;5090721;28;20436;-76
2022/12/15 15:55:30;;;;;;;34.67;22.40;;;;;;;;;;5092616;28;20472;-75
2022/12/15 15:57:59;;;;;;;32.83;22.43;;;;;;;;;;5091674;28;20481;-76
2022/12/15 16:00:26;;;;;;;34.17;20.83;;;;;;;;;;5091141;28;20512;-78
2022/12/15 16:02:53;;;;;;;31.17;23.17;;;;;;;;;;5091190;28;20821;-76
2022/12/15 16:05:20;;;;;;;32.37;20.83;;;;;;;;;;5090514;28;20527;-75
2022/12/15 16:07:49;;;;;;;33.43;22.50;;;;;;;;;;5091691;28;20444;-73
2022/12/15 16:10:17;;;;;;;31.43;21.33;;;;;;;;;;5090382;28;20460;-76
2022/12/15 16:12:46;;;;;;;34.47;22.23;;;;;;;;;;5089837;28;20943;-76
2022/12/15 16:15:16;;;;;;;32.70;22.40;;;;;;;;;;5090668;28;20448;-76
2022/12/15 16:17:43;;;;;;;34.07;22.97;;;;;;;;;;5089735;28;20881;-76
2022/12/15 16:20:11;;;;;;;30.03;22.13;;;;;;;;;;5089099;28;20473;-75
2022/12/15 16:22:38;;;;;;;31.87;21.60;;;;;;;;;;5089871;28;20467;-76
2022/12/15 16:25:06;;;;;;;30.13;21.00;;;;;;;;;;5089880;28;20444;-76
2022/12/15 16:27:33;;;;;;;29.33;23.23;;;;;;;;;;5090477;28;20482;-76
2022/12/15 16:30:00;;;;;;;28.60;20.70;;;;;;;;;;5090960;28;20458;-75
2022/12/15 16:32:28;;;;;;;30.33;20.60;;;;;;;;;;5089783;28;20590;-76
2022/12/15 16:34:55;;;;;;;30.70;19.43;;;;;;;;;;5090737;28;20461;-76
2022/12/15 16:37:25;;;;;;;31.43;21.03;;;;;;;;;;5089501;28;20508;-76
2022/12/15 16:39:52;;;;;;;28.83;19.97;;;;;;;;;;5090325;28;20448;-76
2022/12/15 16:42:19;;;;;;;30.70;21.10;;;;;;;;;;5090031;28;20444;-75
2022/12/15 16:44:47;;;;;;;27.70;19.97;;;;;;;;;;5090008;28;20923;-75
2022/12/15 16:47:14;;;;;;;29.17;21.60;;;;;;;;;;5089801;28;20986;-75
2022/12/15 16:49:42;;;;;;;30.77;19.90;;;;;;;;;;5090477;28;20439;-75
2022/12/15 16:52:17;;;;;;;31.97;21.20;;;;;;;;;;5090147;28;20963;-75
2022/12/15 16:54:45;;;;;;;30.23;20.77;;;;;;;;;;5089477;28;20447;-74
2022/12/15 16:57:13;;;;;;;31.33;22.13;;;;;;;;;;5089862;28;20486;-75